sensor_id;sensor_type;location;lat;lon;timestamp;P1;durP1;ratioP1;P2;durP2;ratioP2
42754;SDS011;28407;51.830;5.684;2023-07-09T00:00:51;6.23;;;3.80;;
42754;SDS011;28407;51.830;5.684;2023-07-09T00:02:52;6.65;;;3.55;;
42754;SDS011;28407;51.830;5.684;2023-07-09T00:04:53;5.37;;;3.10;;
42754;SDS011;28407;51.830;5.684;2023-07-09T00:06:54;5.50;;;3.88;;
42754;SDS011;28407;51.830;5.684;2023-07-09T00:08:57;5.30;;;3.10;;
42754;SDS011;28407;51.830;5.684;2023-07-09T00:10:58;6.53;;;3.90;;
42754;SDS011;28407;51.830;5.684;2023-07-09T00:12:59;5.33;;;3.23;;
42754;SDS011;28407;51.830;5.684;2023-07-09T00:14:59;6.07;;;3.38;;
42754;SDS011;28407;51.830;5.684;2023-07-09T00:17:00;5.13;;;3.30;;
42754;SDS011;28407;51.830;5.684;2023-07-09T00:21:04;5.18;;;3.17;;
42754;SDS011;28407;51.830;5.684;2023-07-09T00:23:05;6.03;;;2.78;;
42754;SDS011;28407;51.830;5.684;2023-07-09T00:25:07;6.70;;;3.50;;
42754;SDS011;28407;51.830;5.684;2023-07-09T00:27:17;6.35;;;3.72;;
42754;SDS011;28407;51.830;5.684;2023-07-09T00:29:19;5.80;;;2.97;;
42754;SDS011;28407;51.830;5.684;2023-07-09T00:31:20;5.77;;;3.53;;
42754;SDS011;28407;51.830;5.684;2023-07-09T00:33:21;6.33;;;3.70;;
42754;SDS011;28407;51.830;5.684;2023-07-09T00:35:21;6.68;;;4.07;;
42754;SDS011;28407;51.830;5.684;2023-07-09T00:39:27;5.75;;;3.03;;
42754;SDS011;28407;51.830;5.684;2023-07-09T00:41:35;5.17;;;3.43;;
42754;SDS011;28407;51.830;5.684;2023-07-09T00:43:37;5.90;;;4.00;;
42754;SDS011;28407;51.830;5.684;2023-07-09T00:45:37;6.90;;;3.77;;
42754;SDS011;28407;51.830;5.684;2023-07-09T00:47:42;6.18;;;4.18;;
42754;SDS011;28407;51.830;5.684;2023-07-09T00:49:49;6.25;;;3.63;;
42754;SDS011;28407;51.830;5.684;2023-07-09T00:52:01;6.53;;;3.55;;
42754;SDS011;28407;51.830;5.684;2023-07-09T00:54:18;7.50;;;3.70;;
42754;SDS011;28407;51.830;5.684;2023-07-09T00:58:30;5.93;;;3.63;;
42754;SDS011;28407;51.830;5.684;2023-07-09T01:00:34;5.97;;;3.90;;
42754;SDS011;28407;51.830;5.684;2023-07-09T01:02:46;5.95;;;4.10;;
42754;SDS011;28407;51.830;5.684;2023-07-09T01:04:49;4.38;;;2.95;;
42754;SDS011;28407;51.830;5.684;2023-07-09T01:06:52;6.53;;;3.60;;
42754;SDS011;28407;51.830;5.684;2023-07-09T01:08:55;6.93;;;3.80;;
42754;SDS011;28407;51.830;5.684;2023-07-09T01:10:57;5.10;;;3.80;;
42754;SDS011;28407;51.830;5.684;2023-07-09T01:13:01;5.50;;;3.92;;
42754;SDS011;28407;51.830;5.684;2023-07-09T01:15:02;5.45;;;3.67;;
42754;SDS011;28407;51.830;5.684;2023-07-09T01:17:05;7.10;;;3.78;;
42754;SDS011;28407;51.830;5.684;2023-07-09T01:19:08;8.38;;;5.82;;
42754;SDS011;28407;51.830;5.684;2023-07-09T01:21:09;6.13;;;4.17;;
42754;SDS011;28407;51.830;5.684;2023-07-09T01:23:15;7.13;;;4.00;;
42754;SDS011;28407;51.830;5.684;2023-07-09T01:25:16;6.63;;;4.00;;
42754;SDS011;28407;51.830;5.684;2023-07-09T01:27:18;6.97;;;4.70;;
42754;SDS011;28407;51.830;5.684;2023-07-09T01:29:21;6.93;;;4.07;;
42754;SDS011;28407;51.830;5.684;2023-07-09T01:31:22;7.80;;;4.00;;
42754;SDS011;28407;51.830;5.684;2023-07-09T01:33:24;5.75;;;3.85;;
42754;SDS011;28407;51.830;5.684;2023-07-09T01:35:24;7.20;;;4.10;;
42754;SDS011;28407;51.830;5.684;2023-07-09T01:37:27;7.65;;;4.10;;
42754;SDS011;28407;51.830;5.684;2023-07-09T01:39:28;5.73;;;4.03;;
42754;SDS011;28407;51.830;5.684;2023-07-09T01:41:29;5.75;;;3.45;;
42754;SDS011;28407;51.830;5.684;2023-07-09T01:43:30;5.90;;;3.70;;
42754;SDS011;28407;51.830;5.684;2023-07-09T01:45:31;6.97;;;4.77;;
42754;SDS011;28407;51.830;5.684;2023-07-09T01:47:33;5.65;;;3.50;;
42754;SDS011;28407;51.830;5.684;2023-07-09T01:49:34;8.27;;;4.33;;
42754;SDS011;28407;51.830;5.684;2023-07-09T01:51:34;6.45;;;4.07;;
42754;SDS011;28407;51.830;5.684;2023-07-09T01:53:36;9.27;;;4.20;;
42754;SDS011;28407;51.830;5.684;2023-07-09T01:55:42;6.25;;;4.40;;
42754;SDS011;28407;51.830;5.684;2023-07-09T01:57:42;6.32;;;4.18;;
42754;SDS011;28407;51.830;5.684;2023-07-09T01:59:45;6.57;;;4.22;;
42754;SDS011;28407;51.830;5.684;2023-07-09T02:01:46;6.22;;;4.30;;
42754;SDS011;28407;51.830;5.684;2023-07-09T02:03:46;6.60;;;4.87;;
42754;SDS011;28407;51.830;5.684;2023-07-09T02:05:47;6.57;;;4.65;;
42754;SDS011;28407;51.830;5.684;2023-07-09T02:07:48;5.30;;;4.03;;
42754;SDS011;28407;51.830;5.684;2023-07-09T02:09:49;5.60;;;3.70;;
42754;SDS011;28407;51.830;5.684;2023-07-09T02:13:52;7.80;;;4.40;;
42754;SDS011;28407;51.830;5.684;2023-07-09T02:15:52;6.25;;;4.82;;
42754;SDS011;28407;51.830;5.684;2023-07-09T02:17:53;9.18;;;5.05;;
42754;SDS011;28407;51.830;5.684;2023-07-09T02:19:54;5.93;;;4.00;;
42754;SDS011;28407;51.830;5.684;2023-07-09T02:21:55;9.50;;;5.45;;
42754;SDS011;28407;51.830;5.684;2023-07-09T02:23:56;7.63;;;4.93;;
42754;SDS011;28407;51.830;5.684;2023-07-09T02:25:57;6.83;;;4.90;;
42754;SDS011;28407;51.830;5.684;2023-07-09T02:27:57;7.93;;;4.45;;
42754;SDS011;28407;51.830;5.684;2023-07-09T02:29:58;6.60;;;4.43;;
42754;SDS011;28407;51.830;5.684;2023-07-09T02:31:59;7.53;;;5.00;;
42754;SDS011;28407;51.830;5.684;2023-07-09T02:36:03;6.95;;;5.40;;
42754;SDS011;28407;51.830;5.684;2023-07-09T02:38:04;8.55;;;4.82;;
42754;SDS011;28407;51.830;5.684;2023-07-09T02:40:05;9.05;;;5.07;;
42754;SDS011;28407;51.830;5.684;2023-07-09T02:42:10;6.60;;;4.95;;
42754;SDS011;28407;51.830;5.684;2023-07-09T02:44:13;10.45;;;6.30;;
42754;SDS011;28407;51.830;5.684;2023-07-09T02:46:14;6.87;;;4.90;;
42754;SDS011;28407;51.830;5.684;2023-07-09T02:48:15;7.68;;;4.90;;
42754;SDS011;28407;51.830;5.684;2023-07-09T02:50:15;6.35;;;4.35;;
42754;SDS011;28407;51.830;5.684;2023-07-09T02:52:16;7.68;;;5.70;;
42754;SDS011;28407;51.830;5.684;2023-07-09T02:54:17;7.15;;;4.57;;
42754;SDS011;28407;51.830;5.684;2023-07-09T02:56:18;6.57;;;4.83;;
42754;SDS011;28407;51.830;5.684;2023-07-09T02:58:19;8.77;;;5.70;;
42754;SDS011;28407;51.830;5.684;2023-07-09T03:00:19;7.15;;;4.82;;
42754;SDS011;28407;51.830;5.684;2023-07-09T03:02:20;6.68;;;4.38;;
42754;SDS011;28407;51.830;5.684;2023-07-09T03:04:21;7.82;;;4.70;;
42754;SDS011;28407;51.830;5.684;2023-07-09T03:06:22;7.00;;;4.90;;
42754;SDS011;28407;51.830;5.684;2023-07-09T03:08:24;6.80;;;5.28;;
42754;SDS011;28407;51.830;5.684;2023-07-09T03:10:25;9.98;;;4.13;;
42754;SDS011;28407;51.830;5.684;2023-07-09T03:12:28;6.50;;;4.65;;
42754;SDS011;28407;51.830;5.684;2023-07-09T03:14:29;6.78;;;4.63;;
42754;SDS011;28407;51.830;5.684;2023-07-09T03:16:30;6.85;;;5.22;;
42754;SDS011;28407;51.830;5.684;2023-07-09T03:18:32;6.43;;;4.80;;
42754;SDS011;28407;51.830;5.684;2023-07-09T03:20:33;7.65;;;5.07;;
42754;SDS011;28407;51.830;5.684;2023-07-09T03:22:33;8.07;;;5.57;;
42754;SDS011;28407;51.830;5.684;2023-07-09T03:24:34;7.90;;;5.25;;
42754;SDS011;28407;51.830;5.684;2023-07-09T03:26:35;6.80;;;4.80;;
42754;SDS011;28407;51.830;5.684;2023-07-09T03:28:36;7.95;;;4.82;;
42754;SDS011;28407;51.830;5.684;2023-07-09T03:30:40;7.03;;;4.78;;
42754;SDS011;28407;51.830;5.684;2023-07-09T03:32:43;7.47;;;4.53;;
42754;SDS011;28407;51.830;5.684;2023-07-09T03:34:44;8.68;;;4.70;;
42754;SDS011;28407;51.830;5.684;2023-07-09T03:36:45;6.22;;;4.28;;
42754;SDS011;28407;51.830;5.684;2023-07-09T03:38:46;6.97;;;4.93;;
42754;SDS011;28407;51.830;5.684;2023-07-09T03:40:51;6.68;;;4.63;;
42754;SDS011;28407;51.830;5.684;2023-07-09T03:42:52;8.75;;;4.82;;
42754;SDS011;28407;51.830;5.684;2023-07-09T03:44:53;6.85;;;4.35;;
42754;SDS011;28407;51.830;5.684;2023-07-09T03:46:57;7.63;;;4.68;;
42754;SDS011;28407;51.830;5.684;2023-07-09T03:48:58;7.20;;;5.00;;
42754;SDS011;28407;51.830;5.684;2023-07-09T03:50:59;8.70;;;5.43;;
42754;SDS011;28407;51.830;5.684;2023-07-09T03:52:59;7.63;;;5.22;;
42754;SDS011;28407;51.830;5.684;2023-07-09T03:55:00;7.70;;;4.82;;
42754;SDS011;28407;51.830;5.684;2023-07-09T03:57:04;7.95;;;5.72;;
42754;SDS011;28407;51.830;5.684;2023-07-09T03:59:06;6.82;;;4.95;;
42754;SDS011;28407;51.830;5.684;2023-07-09T04:01:07;8.05;;;4.95;;
42754;SDS011;28407;51.830;5.684;2023-07-09T04:03:07;7.70;;;5.45;;
42754;SDS011;28407;51.830;5.684;2023-07-09T04:05:09;6.90;;;4.90;;
42754;SDS011;28407;51.830;5.684;2023-07-09T04:07:09;7.82;;;5.15;;
42754;SDS011;28407;51.830;5.684;2023-07-09T04:09:10;7.88;;;5.47;;
42754;SDS011;28407;51.830;5.684;2023-07-09T04:11:11;8.32;;;5.13;;
42754;SDS011;28407;51.830;5.684;2023-07-09T04:13:12;7.18;;;4.95;;
42754;SDS011;28407;51.830;5.684;2023-07-09T04:15:13;5.47;;;3.88;;
42754;SDS011;28407;51.830;5.684;2023-07-09T04:17:15;8.43;;;4.60;;
42754;SDS011;28407;51.830;5.684;2023-07-09T04:19:15;5.88;;;4.32;;
42754;SDS011;28407;51.830;5.684;2023-07-09T04:21:16;7.25;;;4.32;;
42754;SDS011;28407;51.830;5.684;2023-07-09T04:23:17;8.25;;;4.40;;
42754;SDS011;28407;51.830;5.684;2023-07-09T04:25:18;6.00;;;4.23;;
42754;SDS011;28407;51.830;5.684;2023-07-09T04:27:19;8.15;;;4.82;;
42754;SDS011;28407;51.830;5.684;2023-07-09T04:29:19;7.03;;;4.47;;
42754;SDS011;28407;51.830;5.684;2023-07-09T04:31:20;7.63;;;4.88;;
42754;SDS011;28407;51.830;5.684;2023-07-09T04:33:21;7.18;;;4.65;;
42754;SDS011;28407;51.830;5.684;2023-07-09T04:35:21;7.78;;;4.75;;
42754;SDS011;28407;51.830;5.684;2023-07-09T04:37:22;6.88;;;4.90;;
42754;SDS011;28407;51.830;5.684;2023-07-09T04:39:23;7.75;;;4.90;;
42754;SDS011;28407;51.830;5.684;2023-07-09T04:41:24;6.82;;;4.80;;
42754;SDS011;28407;51.830;5.684;2023-07-09T04:43:25;5.77;;;3.97;;
42754;SDS011;28407;51.830;5.684;2023-07-09T04:45:26;6.85;;;4.63;;
42754;SDS011;28407;51.830;5.684;2023-07-09T04:47:26;8.15;;;5.40;;
42754;SDS011;28407;51.830;5.684;2023-07-09T04:49:27;6.88;;;5.43;;
42754;SDS011;28407;51.830;5.684;2023-07-09T04:51:28;6.20;;;4.15;;
42754;SDS011;28407;51.830;5.684;2023-07-09T04:53:28;9.15;;;5.15;;
42754;SDS011;28407;51.830;5.684;2023-07-09T04:55:29;6.00;;;4.47;;
42754;SDS011;28407;51.830;5.684;2023-07-09T04:57:30;7.45;;;5.07;;
42754;SDS011;28407;51.830;5.684;2023-07-09T04:59:31;7.87;;;4.97;;
42754;SDS011;28407;51.830;5.684;2023-07-09T05:01:31;7.03;;;5.33;;
42754;SDS011;28407;51.830;5.684;2023-07-09T05:03:32;8.85;;;5.10;;
42754;SDS011;28407;51.830;5.684;2023-07-09T05:05:33;7.35;;;5.43;;
42754;SDS011;28407;51.830;5.684;2023-07-09T05:07:34;6.32;;;4.78;;
42754;SDS011;28407;51.830;5.684;2023-07-09T05:09:34;7.75;;;6.03;;
42754;SDS011;28407;51.830;5.684;2023-07-09T05:11:36;8.13;;;5.70;;
42754;SDS011;28407;51.830;5.684;2023-07-09T05:13:36;9.68;;;5.80;;
42754;SDS011;28407;51.830;5.684;2023-07-09T05:15:40;8.82;;;6.18;;
42754;SDS011;28407;51.830;5.684;2023-07-09T05:17:42;7.63;;;6.25;;
42754;SDS011;28407;51.830;5.684;2023-07-09T05:19:42;8.23;;;6.53;;
42754;SDS011;28407;51.830;5.684;2023-07-09T05:21:43;8.68;;;6.40;;
42754;SDS011;28407;51.830;5.684;2023-07-09T05:23:44;9.20;;;5.85;;
42754;SDS011;28407;51.830;5.684;2023-07-09T05:25:44;7.80;;;5.50;;
42754;SDS011;28407;51.830;5.684;2023-07-09T05:27:45;8.05;;;5.90;;
42754;SDS011;28407;51.830;5.684;2023-07-09T05:29:46;7.25;;;5.55;;
42754;SDS011;28407;51.830;5.684;2023-07-09T05:31:47;9.13;;;5.95;;
42754;SDS011;28407;51.830;5.684;2023-07-09T05:33:47;9.23;;;6.80;;
42754;SDS011;28407;51.830;5.684;2023-07-09T05:35:48;7.57;;;6.13;;
42754;SDS011;28407;51.830;5.684;2023-07-09T05:37:49;8.68;;;6.20;;
42754;SDS011;28407;51.830;5.684;2023-07-09T05:39:50;7.13;;;5.87;;
42754;SDS011;28407;51.830;5.684;2023-07-09T05:41:50;6.97;;;5.90;;
42754;SDS011;28407;51.830;5.684;2023-07-09T05:43:51;11.15;;;7.53;;
42754;SDS011;28407;51.830;5.684;2023-07-09T05:45:52;11.82;;;5.90;;
42754;SDS011;28407;51.830;5.684;2023-07-09T05:47:53;9.60;;;6.68;;
42754;SDS011;28407;51.830;5.684;2023-07-09T05:49:54;6.82;;;5.80;;
42754;SDS011;28407;51.830;5.684;2023-07-09T05:51:54;7.95;;;6.30;;
42754;SDS011;28407;51.830;5.684;2023-07-09T05:53:56;10.30;;;6.45;;
42754;SDS011;28407;51.830;5.684;2023-07-09T05:55:57;9.18;;;6.43;;
42754;SDS011;28407;51.830;5.684;2023-07-09T05:57:57;7.40;;;5.47;;
42754;SDS011;28407;51.830;5.684;2023-07-09T05:59:58;9.45;;;6.28;;
42754;SDS011;28407;51.830;5.684;2023-07-09T06:01:59;12.05;;;6.80;;
42754;SDS011;28407;51.830;5.684;2023-07-09T06:06:01;8.45;;;5.80;;
42754;SDS011;28407;51.830;5.684;2023-07-09T06:08:03;8.48;;;5.43;;
42754;SDS011;28407;51.830;5.684;2023-07-09T06:10:05;8.13;;;5.70;;
42754;SDS011;28407;51.830;5.684;2023-07-09T06:12:06;6.35;;;4.90;;
42754;SDS011;28407;51.830;5.684;2023-07-09T06:14:07;7.88;;;5.63;;
42754;SDS011;28407;51.830;5.684;2023-07-09T06:16:09;7.40;;;6.18;;
42754;SDS011;28407;51.830;5.684;2023-07-09T06:18:09;7.93;;;5.75;;
42754;SDS011;28407;51.830;5.684;2023-07-09T06:20:10;7.77;;;5.97;;
42754;SDS011;28407;51.830;5.684;2023-07-09T06:22:11;9.03;;;5.37;;
42754;SDS011;28407;51.830;5.684;2023-07-09T06:24:12;7.82;;;5.43;;
42754;SDS011;28407;51.830;5.684;2023-07-09T06:26:13;7.70;;;5.57;;
42754;SDS011;28407;51.830;5.684;2023-07-09T06:28:15;8.73;;;5.60;;
42754;SDS011;28407;51.830;5.684;2023-07-09T06:30:16;8.55;;;5.22;;
42754;SDS011;28407;51.830;5.684;2023-07-09T06:32:19;8.35;;;5.82;;
42754;SDS011;28407;51.830;5.684;2023-07-09T06:34:20;9.55;;;5.93;;
42754;SDS011;28407;51.830;5.684;2023-07-09T06:36:20;8.07;;;5.50;;
42754;SDS011;28407;51.830;5.684;2023-07-09T06:38:21;8.82;;;5.38;;
42754;SDS011;28407;51.830;5.684;2023-07-09T06:40:22;6.97;;;5.13;;
42754;SDS011;28407;51.830;5.684;2023-07-09T06:42:24;7.05;;;5.40;;
42754;SDS011;28407;51.830;5.684;2023-07-09T06:44:40;7.00;;;4.93;;
42754;SDS011;28407;51.830;5.684;2023-07-09T06:46:41;7.83;;;5.37;;
42754;SDS011;28407;51.830;5.684;2023-07-09T06:48:41;7.72;;;4.72;;
42754;SDS011;28407;51.830;5.684;2023-07-09T06:50:42;7.20;;;5.03;;
42754;SDS011;28407;51.830;5.684;2023-07-09T06:52:43;7.18;;;5.32;;
42754;SDS011;28407;51.830;5.684;2023-07-09T06:54:44;6.73;;;4.83;;
42754;SDS011;28407;51.830;5.684;2023-07-09T06:56:45;8.90;;;4.93;;
42754;SDS011;28407;51.830;5.684;2023-07-09T06:58:45;7.68;;;5.20;;
42754;SDS011;28407;51.830;5.684;2023-07-09T07:00:47;7.07;;;5.35;;
42754;SDS011;28407;51.830;5.684;2023-07-09T07:02:49;7.78;;;4.25;;
42754;SDS011;28407;51.830;5.684;2023-07-09T07:04:50;6.50;;;4.37;;
42754;SDS011;28407;51.830;5.684;2023-07-09T07:06:50;8.47;;;4.67;;
42754;SDS011;28407;51.830;5.684;2023-07-09T07:08:51;8.32;;;4.60;;
42754;SDS011;28407;51.830;5.684;2023-07-09T07:10:56;6.10;;;4.28;;
42754;SDS011;28407;51.830;5.684;2023-07-09T07:13:02;6.35;;;4.47;;
42754;SDS011;28407;51.830;5.684;2023-07-09T07:15:03;6.80;;;4.20;;
42754;SDS011;28407;51.830;5.684;2023-07-09T07:17:04;6.53;;;4.97;;
42754;SDS011;28407;51.830;5.684;2023-07-09T07:19:04;7.35;;;3.95;;
42754;SDS011;28407;51.830;5.684;2023-07-09T07:21:06;6.80;;;4.85;;
42754;SDS011;28407;51.830;5.684;2023-07-09T07:23:06;6.13;;;3.80;;
42754;SDS011;28407;51.830;5.684;2023-07-09T07:25:07;5.97;;;3.75;;
42754;SDS011;28407;51.830;5.684;2023-07-09T07:27:09;5.97;;;3.60;;
42754;SDS011;28407;51.830;5.684;2023-07-09T07:29:09;7.57;;;3.87;;
42754;SDS011;28407;51.830;5.684;2023-07-09T07:31:10;5.32;;;3.55;;
42754;SDS011;28407;51.830;5.684;2023-07-09T07:33:13;6.40;;;4.15;;
42754;SDS011;28407;51.830;5.684;2023-07-09T07:35:16;5.13;;;3.63;;
42754;SDS011;28407;51.830;5.684;2023-07-09T07:37:18;5.88;;;3.58;;
42754;SDS011;28407;51.830;5.684;2023-07-09T07:39:22;5.97;;;3.60;;
42754;SDS011;28407;51.830;5.684;2023-07-09T07:41:22;5.80;;;3.73;;
42754;SDS011;28407;51.830;5.684;2023-07-09T07:43:24;4.80;;;3.30;;
42754;SDS011;28407;51.830;5.684;2023-07-09T07:45:24;4.43;;;3.15;;
42754;SDS011;28407;51.830;5.684;2023-07-09T07:47:25;7.45;;;3.65;;
42754;SDS011;28407;51.830;5.684;2023-07-09T07:49:29;5.60;;;3.78;;
42754;SDS011;28407;51.830;5.684;2023-07-09T07:51:30;5.70;;;4.10;;
42754;SDS011;28407;51.830;5.684;2023-07-09T07:53:31;5.88;;;3.63;;
42754;SDS011;28407;51.830;5.684;2023-07-09T07:55:31;5.60;;;3.70;;
42754;SDS011;28407;51.830;5.684;2023-07-09T07:57:32;6.30;;;3.97;;
42754;SDS011;28407;51.830;5.684;2023-07-09T07:59:33;6.32;;;3.78;;
42754;SDS011;28407;51.830;5.684;2023-07-09T08:01:34;5.25;;;3.42;;
42754;SDS011;28407;51.830;5.684;2023-07-09T08:03:35;5.33;;;3.43;;
42754;SDS011;28407;51.830;5.684;2023-07-09T08:05:36;5.43;;;3.53;;
42754;SDS011;28407;51.830;5.684;2023-07-09T08:07:37;6.80;;;3.00;;
42754;SDS011;28407;51.830;5.684;2023-07-09T08:09:37;4.93;;;3.38;;
42754;SDS011;28407;51.830;5.684;2023-07-09T08:11:39;5.72;;;3.38;;
42754;SDS011;28407;51.830;5.684;2023-07-09T08:13:40;4.63;;;2.97;;
42754;SDS011;28407;51.830;5.684;2023-07-09T08:15:41;6.20;;;3.67;;
42754;SDS011;28407;51.830;5.684;2023-07-09T08:17:42;5.10;;;3.30;;
42754;SDS011;28407;51.830;5.684;2023-07-09T08:19:43;5.67;;;2.90;;
42754;SDS011;28407;51.830;5.684;2023-07-09T08:21:46;5.68;;;3.47;;
42754;SDS011;28407;51.830;5.684;2023-07-09T08:23:47;5.73;;;4.10;;
42754;SDS011;28407;51.830;5.684;2023-07-09T08:25:54;6.43;;;3.67;;
42754;SDS011;28407;51.830;5.684;2023-07-09T08:27:56;6.25;;;3.63;;
42754;SDS011;28407;51.830;5.684;2023-07-09T08:29:57;4.50;;;2.90;;
42754;SDS011;28407;51.830;5.684;2023-07-09T08:31:57;6.07;;;3.33;;
42754;SDS011;28407;51.830;5.684;2023-07-09T08:33:58;5.33;;;3.30;;
42754;SDS011;28407;51.830;5.684;2023-07-09T08:35:59;5.83;;;3.37;;
42754;SDS011;28407;51.830;5.684;2023-07-09T08:37:59;6.03;;;3.37;;
42754;SDS011;28407;51.830;5.684;2023-07-09T08:40:00;4.47;;;3.10;;
42754;SDS011;28407;51.830;5.684;2023-07-09T08:42:07;5.43;;;3.60;;
42754;SDS011;28407;51.830;5.684;2023-07-09T08:46:38;6.07;;;3.65;;
42754;SDS011;28407;51.830;5.684;2023-07-09T08:48:51;6.10;;;3.55;;
42754;SDS011;28407;51.830;5.684;2023-07-09T08:50:55;5.70;;;3.03;;
42754;SDS011;28407;51.830;5.684;2023-07-09T08:52:59;5.57;;;2.88;;
42754;SDS011;28407;51.830;5.684;2023-07-09T08:55:04;4.60;;;3.15;;
42754;SDS011;28407;51.830;5.684;2023-07-09T08:57:16;6.90;;;3.45;;
42754;SDS011;28407;51.830;5.684;2023-07-09T08:59:24;5.90;;;3.63;;
42754;SDS011;28407;51.830;5.684;2023-07-09T09:01:27;6.87;;;3.07;;
42754;SDS011;28407;51.830;5.684;2023-07-09T09:03:37;4.78;;;3.20;;
42754;SDS011;28407;51.830;5.684;2023-07-09T09:05:42;5.15;;;3.22;;
42754;SDS011;28407;51.830;5.684;2023-07-09T09:07:47;5.68;;;3.42;;
42754;SDS011;28407;51.830;5.684;2023-07-09T09:09:58;8.07;;;4.50;;
42754;SDS011;28407;51.830;5.684;2023-07-09T09:12:13;6.97;;;3.17;;
42754;SDS011;28407;51.830;5.684;2023-07-09T09:14:19;5.53;;;3.20;;
42754;SDS011;28407;51.830;5.684;2023-07-09T09:18:35;6.82;;;2.38;;
42754;SDS011;28407;51.830;5.684;2023-07-09T09:20:41;6.07;;;2.72;;
42754;SDS011;28407;51.830;5.684;2023-07-09T09:22:44;6.27;;;2.90;;
42754;SDS011;28407;51.830;5.684;2023-07-09T09:25:04;5.95;;;2.60;;
42754;SDS011;28407;51.830;5.684;2023-07-09T09:27:16;5.13;;;2.78;;
42754;SDS011;28407;51.830;5.684;2023-07-09T09:29:16;4.23;;;2.40;;
42754;SDS011;28407;51.830;5.684;2023-07-09T09:31:17;5.57;;;3.20;;
42754;SDS011;28407;51.830;5.684;2023-07-09T09:33:18;3.95;;;3.05;;
42754;SDS011;28407;51.830;5.684;2023-07-09T09:35:20;4.50;;;2.87;;
42754;SDS011;28407;51.830;5.684;2023-07-09T09:37:26;4.50;;;2.35;;
42754;SDS011;28407;51.830;5.684;2023-07-09T09:39:29;5.82;;;3.35;;
42754;SDS011;28407;51.830;5.684;2023-07-09T09:41:30;4.50;;;2.87;;
42754;SDS011;28407;51.830;5.684;2023-07-09T09:43:34;4.30;;;2.67;;
42754;SDS011;28407;51.830;5.684;2023-07-09T09:45:37;5.47;;;3.30;;
42754;SDS011;28407;51.830;5.684;2023-07-09T09:47:39;5.47;;;3.08;;
42754;SDS011;28407;51.830;5.684;2023-07-09T09:49:40;4.33;;;2.43;;
42754;SDS011;28407;51.830;5.684;2023-07-09T09:51:44;4.68;;;2.80;;
42754;SDS011;28407;51.830;5.684;2023-07-09T09:53:50;4.68;;;2.83;;
42754;SDS011;28407;51.830;5.684;2023-07-09T09:55:53;5.03;;;2.67;;
42754;SDS011;28407;51.830;5.684;2023-07-09T09:57:55;5.13;;;3.03;;
42754;SDS011;28407;51.830;5.684;2023-07-09T09:59:57;3.80;;;2.28;;
42754;SDS011;28407;51.830;5.684;2023-07-09T10:02:00;5.53;;;3.00;;
42754;SDS011;28407;51.830;5.684;2023-07-09T10:04:03;5.55;;;2.78;;
42754;SDS011;28407;51.830;5.684;2023-07-09T10:06:06;3.83;;;2.47;;
42754;SDS011;28407;51.830;5.684;2023-07-09T10:10:50;4.80;;;3.08;;
42754;SDS011;28407;51.830;5.684;2023-07-09T10:12:58;4.63;;;2.80;;
42754;SDS011;28407;51.830;5.684;2023-07-09T10:18:21;3.50;;;2.33;;
42754;SDS011;28407;51.830;5.684;2023-07-09T10:20:31;4.28;;;2.67;;
42754;SDS011;28407;51.830;5.684;2023-07-09T10:25:34;5.38;;;2.67;;
42754;SDS011;28407;51.830;5.684;2023-07-09T10:27:46;4.90;;;2.70;;
42754;SDS011;28407;51.830;5.684;2023-07-09T10:30:13;6.35;;;2.58;;
42754;SDS011;28407;51.830;5.684;2023-07-09T10:39:23;5.30;;;2.30;;
42754;SDS011;28407;51.830;5.684;2023-07-09T10:41:29;3.85;;;2.53;;
42754;SDS011;28407;51.830;5.684;2023-07-09T10:46:13;3.85;;;2.33;;
42754;SDS011;28407;51.830;5.684;2023-07-09T10:48:18;6.65;;;2.63;;
42754;SDS011;28407;51.830;5.684;2023-07-09T10:50:35;4.63;;;2.55;;
42754;SDS011;28407;51.830;5.684;2023-07-09T10:52:40;5.07;;;2.13;;
42754;SDS011;28407;51.830;5.684;2023-07-09T10:54:53;3.92;;;2.30;;
42754;SDS011;28407;51.830;5.684;2023-07-09T10:57:08;3.60;;;2.10;;
42754;SDS011;28407;51.830;5.684;2023-07-09T10:59:20;3.28;;;1.90;;
42754;SDS011;28407;51.830;5.684;2023-07-09T11:01:38;4.40;;;2.58;;
42754;SDS011;28407;51.830;5.684;2023-07-09T11:03:49;5.10;;;2.13;;
42754;SDS011;28407;51.830;5.684;2023-07-09T11:05:53;4.47;;;2.00;;
42754;SDS011;28407;51.830;5.684;2023-07-09T11:08:07;5.05;;;2.08;;
42754;SDS011;28407;51.830;5.684;2023-07-09T11:10:23;3.33;;;1.80;;
42754;SDS011;28407;51.830;5.684;2023-07-09T11:12:36;4.90;;;2.08;;
42754;SDS011;28407;51.830;5.684;2023-07-09T11:14:41;4.03;;;1.80;;
42754;SDS011;28407;51.830;5.684;2023-07-09T11:16:47;3.22;;;1.50;;
42754;SDS011;28407;51.830;5.684;2023-07-09T11:18:56;4.10;;;2.58;;
42754;SDS011;28407;51.830;5.684;2023-07-09T11:21:17;4.25;;;1.90;;
42754;SDS011;28407;51.830;5.684;2023-07-09T11:23:19;4.68;;;1.80;;
42754;SDS011;28407;51.830;5.684;2023-07-09T11:25:43;3.92;;;2.13;;
42754;SDS011;28407;51.830;5.684;2023-07-09T11:27:49;3.85;;;1.90;;
42754;SDS011;28407;51.830;5.684;2023-07-09T11:30:02;5.00;;;2.00;;
42754;SDS011;28407;51.830;5.684;2023-07-09T11:32:18;4.95;;;2.00;;
42754;SDS011;28407;51.830;5.684;2023-07-09T11:34:21;3.58;;;1.70;;
42754;SDS011;28407;51.830;5.684;2023-07-09T11:36:29;2.95;;;1.92;;
42754;SDS011;28407;51.830;5.684;2023-07-09T11:38:36;3.30;;;1.88;;
42754;SDS011;28407;51.830;5.684;2023-07-09T11:40:47;3.63;;;2.17;;
42754;SDS011;28407;51.830;5.684;2023-07-09T11:42:55;3.72;;;2.00;;
42754;SDS011;28407;51.830;5.684;2023-07-09T11:45:17;3.33;;;1.60;;
42754;SDS011;28407;51.830;5.684;2023-07-09T11:47:32;3.75;;;1.70;;
42754;SDS011;28407;51.830;5.684;2023-07-09T11:49:49;3.60;;;2.17;;
42754;SDS011;28407;51.830;5.684;2023-07-09T11:52:00;3.60;;;1.65;;
42754;SDS011;28407;51.830;5.684;2023-07-09T11:54:04;3.35;;;1.70;;
42754;SDS011;28407;51.830;5.684;2023-07-09T11:56:07;3.10;;;1.83;;
42754;SDS011;28407;51.830;5.684;2023-07-09T11:58:09;4.32;;;1.67;;
42754;SDS011;28407;51.830;5.684;2023-07-09T12:00:15;4.43;;;1.98;;
42754;SDS011;28407;51.830;5.684;2023-07-09T12:02:19;4.40;;;1.65;;
42754;SDS011;28407;51.830;5.684;2023-07-09T12:04:22;3.58;;;1.67;;
42754;SDS011;28407;51.830;5.684;2023-07-09T12:06:35;3.65;;;1.83;;
42754;SDS011;28407;51.830;5.684;2023-07-09T12:08:40;5.35;;;1.70;;
42754;SDS011;28407;51.830;5.684;2023-07-09T12:10:42;5.47;;;2.60;;
42754;SDS011;28407;51.830;5.684;2023-07-09T12:12:44;2.78;;;1.65;;
42754;SDS011;28407;51.830;5.684;2023-07-09T12:14:45;2.83;;;1.50;;
42754;SDS011;28407;51.830;5.684;2023-07-09T12:16:47;5.67;;;2.00;;
42754;SDS011;28407;51.830;5.684;2023-07-09T12:18:49;4.57;;;2.00;;
42754;SDS011;28407;51.830;5.684;2023-07-09T12:20:51;4.00;;;1.97;;
42754;SDS011;28407;51.830;5.684;2023-07-09T12:22:53;3.20;;;1.80;;
42754;SDS011;28407;51.830;5.684;2023-07-09T12:24:54;4.03;;;2.37;;
42754;SDS011;28407;51.830;5.684;2023-07-09T12:26:57;3.70;;;2.10;;
42754;SDS011;28407;51.830;5.684;2023-07-09T12:29:02;4.30;;;2.20;;
42754;SDS011;28407;51.830;5.684;2023-07-09T12:31:03;4.17;;;2.30;;
42754;SDS011;28407;51.830;5.684;2023-07-09T12:33:06;3.20;;;1.90;;
42754;SDS011;28407;51.830;5.684;2023-07-09T12:35:11;3.72;;;1.95;;
42754;SDS011;28407;51.830;5.684;2023-07-09T12:37:14;4.68;;;2.42;;
42754;SDS011;28407;51.830;5.684;2023-07-09T12:39:23;4.18;;;2.00;;
42754;SDS011;28407;51.830;5.684;2023-07-09T12:41:32;5.03;;;2.40;;
42754;SDS011;28407;51.830;5.684;2023-07-09T12:43:40;8.57;;;2.00;;
42754;SDS011;28407;51.830;5.684;2023-07-09T12:45:42;2.92;;;1.58;;
42754;SDS011;28407;51.830;5.684;2023-07-09T12:47:43;2.60;;;1.70;;
42754;SDS011;28407;51.830;5.684;2023-07-09T12:49:45;5.05;;;1.98;;
42754;SDS011;28407;51.830;5.684;2023-07-09T12:51:47;3.17;;;1.60;;
42754;SDS011;28407;51.830;5.684;2023-07-09T12:53:48;3.03;;;1.87;;
42754;SDS011;28407;51.830;5.684;2023-07-09T12:58:01;2.13;;;1.42;;
42754;SDS011;28407;51.830;5.684;2023-07-09T13:00:05;2.58;;;1.45;;